Arcata, CA (95519)

12:44 AM PDT on July 27, 2016 (GMT -0700)
APRSWXNET | | Change Station

Elev 183 ft 40.88 °N, 124.08 °W | Updated 19 minutes ago

Overcast
Overcast
55.0 °F
Feels Like 55.0 °F
N
2.0
Wind Variable Wind from SSE
Gusts 9.0 mph

Today
High -- | Low -- °F
--% Chance of Precip.
Yesterday
High -- | Low -- °F
Precip. -- in
Pressure 29.97 in
Visibility 7.0 miles
Clouds Overcast 600 ft
Dew Point 53.0 °F
Humidity 92%
Rainfall in
Snow Depth Not available.
6:08 AM 8:36 PM
Last Quarter, 46% visible
METAR KACV 270653Z AUTO 17008KT 7SM OVC006 13/12 A2996 RMK AO2 SLP148 T01330122
Pressure 29.97 in
Visibility 7.0 miles
Clouds Overcast 600 ft
Dew Point 53.0 °F
Humidity 92%
Rainfall in
Snow Depth Not available.
6:08 AM 8:36 PM
Last Quarter, 46% visible
METAR KACV 270653Z AUTO 17008KT 7SM OVC006 13/12 A2996 RMK AO2 SLP148 T01330122

10-Day Weather Forecast

Almanac

Astronomy

Jul. 27, 2016 Rise Set
Actual Time
Civil Twilight
Nautical Twilight
Astronomical Twilight
Moon
Length of Visible Light
Length of Day
Tomorrow will be .
, % of the Moon is Illuminated

Today's Extremes

State Highs State Lows

Community

WunderPhotos

Upload Photos

1,927,818 photos uploaded!

WunderBlog® & News

Nearby

Air Quality

  Air Quality AQ Index Pollutant
Not available.

Snow Depth

Station Depth Elevation

Earthquake Activity

City Distance Mag. Time & Date
Minimum magnitude displayed is 2.5.

Coastal Water Temperatures

Place Temperature

Stations

Nearby Weather Stations

Station Location Temp. Windchill Dew Point Humidity Wind Precip. Elev Updated Type
                   

Watches & Warnings

There are currently no watches in effect.